Flight Track Log - Related Links

Times and Time Zones

All times are in EDT time to prevent confusion due to time zone crossing. See the N6ZE flight status page for this flight to view local times or setup timezone preferences in your user account.

Time Position Orientation Groundspeed Altitude Reporting Facility
EDT Latitude Longitude Course Direction KTS MPH feet Rate Location/Type
Thu 06:55:37 AM 25.6431 -80.5189 297° West 200 230 2,000  Level Miami Center
Thu 06:56:24 AM 25.6628 -80.5614 297° West 211 243 2,200 1,444 Climbing Miami Center
Thu 06:57:25 AM 25.7103 -80.6119 316° Northwest 237 273 4,600 2,281 Climbing Miami Center
Thu 06:58:25 AM 25.7683 -80.6161 356° North 256 295 6,800 2,380 Climbing Miami Center
Thu 06:59:26 AM 25.8419 -80.6189 358° North 262 302 9,400 2,557 Climbing Miami Center
Thu 07:00:27 AM 25.9306 -80.6214 359° North 262 302 12,000 1,279 Climbing Miami Center
Thu 07:01:28 AM 26.0153 -80.6319 354° North 312 359 12,000  Level Miami Center
Thu 07:02:28 AM 26.0822 -80.6908 322° Northwest 308 354 12,000  Level Miami Center
Thu 07:03:29 AM 26.1483 -80.7511 321° Northwest 308 354 12,000  Level Miami Center
Thu 07:04:30 AM 26.2175 -80.8072 324° Northwest 308 354 12,000  Level Miami Center
Thu 07:05:31 AM 26.2908 -80.8675 324° Northwest 305 351 12,000 -545 Level Miami Center
Thu 07:06:31 AM 26.3578 -80.9222 324° Northwest 302 348 10,900 -992 Descending Miami Center
Thu 07:07:32 AM 26.4175 -80.9758 321° Northwest 276 318 10,000 -492 Descending Miami Center
Thu 07:08:33 AM 26.4336 -81.0569 283° West 267 307 9,900 -98 Descending Miami Center
Thu 07:09:34 AM 26.4433 -81.1375 278° West 264 304 9,800 -694 Descending Miami Center
Thu 07:10:34 AM 26.4564 -81.2222 280° West 261 300 8,500 -1,289 Descending Miami Center
Thu 07:11:35 AM 26.4678 -81.2997 279° West 256 295 7,200 -1,328 Descending Miami Center
Thu 07:12:36 AM 26.4794 -81.3753 280° West 251 289 5,800 -1,377 Descending Miami Center
Thu 07:13:37 AM 26.4906 -81.4514 279° West 252 290 4,400 -1,377 Descending Miami Center
Thu 07:14:38 AM 26.5025 -81.5297 280° West 246 283 3,000 -1,033 Descending Miami Center
Thu 07:15:39 AM 26.5325 -81.5897 299° West 228 262 2,300 -689 Descending Miami Center
Thu 07:16:40 AM 26.5658 -81.6361 309° West 200 230 1,600 -595 Descending Miami Center
Thu 07:17:40 AM 26.5792 -81.6842 287° West 147 169 1,100 -545 Descending Miami Center
Thu 07:18:41 AM 26.5636 -81.7142 240° Southwest 117 135 500 4,377 Descending Miami Center
Thu 07:19:42 AM 26.5447 -81.7425 233° Southwest 115 132 10,000 9,344 Climbing Miami Center

Login

Don't have an account? Register now (free) for customized features, flight alerts, and more!